Ely, Nevada Weather observations

Data are for observation ending at time listed.
 Day   Time    Ave.   Ave.  Ave.  Vector   Max.   Stn.    Total    Solar   Ave.  
  of    of     Air    Rel.  Wind   Wind    Wind   Baro.  Precip.   Rad.    Soil  
Year   Day     Temp.  Hum.  Speed  Dir.    Gust   Pres.                    Temp. 
2014   (PST)    F      %     mph   deg.    mph     mb.     in.     W/m2     F   
------------------------------------------------------------------------------
 297   10:50   70.4    14   12.1   181     20.0   813.9    0.00     727    71.8
 297   11:00   71.2    14   16.2   192     26.7   813.6    0.00     735    72.4
 297   11:10   71.3    14   23.4   194     30.1   813.3    0.00     740    72.9
 297   11:20   71.5    14   25.0   192     32.7   813.2    0.00     740    73.1
 297   11:30   71.6    14   23.9   189     32.7   813.2    0.00     740    73.2
 297   11:40   72.1    13   20.5   187     28.8   813.2    0.00     739    73.2
 297   11:50   72.8    13   21.9   194     29.2   813.1    0.00     738    73.4
 297   12:00   72.6    13   22.3   188     31.8   812.9    0.00     729    73.6
 297   12:10   72.9    13   22.3   191     29.7   812.8    0.00     726    73.6
 297   12:20   73.4    12   22.4   192     30.2   812.7    0.00     713    73.4
 297   12:30   73.3    13   16.2   164     26.7   812.6    0.00     701    73.0
 297   12:40   73.1    13   18.5   149     29.9   812.5    0.00     687    72.4
 297   12:50   73.5    12   20.0   190     27.2   812.5    0.00     675    71.8
 297   13:00   74.0    12   19.3   194     26.2   812.4    0.00     657    71.3
 297   13:10   73.2    13   18.1   158     28.9   812.4    0.00     641    71.1
 297   13:20   72.9    13   15.9   146     23.2   812.3    0.00     620    71.3
 297   13:30   72.8    14   14.2   141     21.5   812.3    0.00     598    71.5
 297   13:40   72.5    14   16.8   143     26.8   812.3    0.00     574    71.6
 297   13:50   72.5    14   16.1   140     27.2   812.3    0.00     552    71.6
 297   14:00   72.5    14   14.7   142     21.9   812.3    0.00     528    71.4
 297   14:10   72.6    14   14.1   144     26.0   812.2    0.00     500    71.2
 297   14:20   72.7    14   15.2   148     21.5   812.2    0.00     473    70.9
 297   14:30   73.3    14   13.6   144     19.3   812.2    0.00     445    70.5
 297   14:40   73.3    14   15.3   144     23.2   812.1    0.00     414    70.2
 297   14:50   72.9    14   16.8   146     21.8   812.1    0.00     385    69.9
 297   15:00   72.8    14   13.4   160     22.0   812.0    0.00     350    69.5
 297   15:10   72.6    14   14.3   157     20.4   812.0    0.00     319    69.1
 297   15:20   72.2    14   14.8   153     21.5   811.9    0.00     285    68.8
 297   15:30   72.1    14   14.4   158     20.2   811.9    0.00     252    68.5
 297   15:40   71.8    14   11.8   169     19.7   811.9    0.00     218    68.1
 297   15:50   71.5    15   13.4   164     21.2   811.8    0.00     185    67.7
 297   16:00   70.6    16   12.2   164     18.5   811.8    0.00     152    67.4
 297   16:10   70.3    16   10.1   174     15.3   811.9    0.00     113    67.0
 297   16:20   70.0    17   10.5   188     13.9   811.8    0.00      76    66.7
 297   16:30   68.0    18    9.2   192     12.9   811.9    0.00      22    66.2
 297   16:40   65.4    20    8.3   190      9.6   811.9    0.00       7    65.6
 297   16:50   64.0    22    7.3   184      9.0   811.9    0.00       7    64.9
 297   17:00   62.6    23    7.6   186      9.6   811.9    0.00       7    64.3
 297   17:10   61.7    22    4.1   115     10.0   812.0    0.00       3    63.6
 297   17:20   60.4    23    5.1   118      8.0   812.1    0.00       0    63.0
 297   17:30   59.7    24    6.5   147      8.9   812.1    0.00       1    62.4
 297   17:40   58.5    25    7.5   156     11.1   812.2    0.00       0    61.8
 297   17:50   58.9    25   10.1   151     12.2   812.2    0.00       0    61.3
 297   18:00   57.7    26    8.7   151     10.9   812.4    0.00       0    60.9
 297   18:10   55.9    28    8.0   156     11.9   812.4    0.00       0    60.5
 297   18:20   55.3    28    8.1   168     12.1   812.5    0.00       0    60.0
 297   18:30   54.2    30   10.1   178     13.3   812.5    0.00       1    59.6
 297   18:40   53.9    30    9.9   174     13.7   812.5    0.00       1    59.1
 297   18:50   53.7    31    9.4   170     13.7   812.5    0.00       0    58.7
 297   19:00   53.7    31   10.3   167     15.8   812.6    0.00       0    58.3
 297   19:10   54.0    31   11.1   165     15.5   812.5    0.00       1    58.0
 297   19:20   55.8    30   10.3   165     16.4   812.6    0.00       0    57.7
 297   19:30   56.5    30   12.7   160     17.0   812.6    0.00       1    57.5
 297   19:40   55.5    31   14.3   158     17.6   812.7    0.00       0    57.3
 297   19:50   55.6    31   13.7   158     17.0   812.7    0.00       0    57.2
 297   20:00   54.5    32    9.4   168     14.0   812.8    0.00       0    57.0
 297   20:10   54.0    32   10.8   167     17.1   812.9    0.00       1    56.8
 297   20:20   52.8    34    9.2   171     14.0   812.9    0.00       1    56.6
 297   20:30   51.1    36    9.0   174     12.1   813.0    0.00       1    56.2
 297   20:40   50.7    38   10.0   181     13.4   813.0    0.00       0    55.9
 297   20:50   49.7    40   11.3   174     19.1   813.0    0.00       0    55.6
 297   21:00   50.0    40   12.5   161     17.4   813.1    0.00       0    55.3
 297   21:10   49.3    42   11.4   167     17.4   813.2    0.00       0    55.0
 297   21:20   49.1    42    9.8   172     13.6   813.2    0.00       1    54.7
 297   21:30   49.7    41   11.6   164     17.1   813.2    0.00       1    54.5
 297   21:40   49.6    42    9.1   176     12.1   813.3    0.00       0    54.2
 297   21:50   51.0    40   10.5   182     14.0   813.3    0.00       0    54.0
 297   22:00   51.3    40   11.3   179     16.7   813.3    0.00       0    53.9
 297   22:10   50.3    42   10.1   176     13.4   813.2    0.00       1    53.7
 297   22:20   50.0    42   10.1   176     14.9   813.2    0.00       0    53.6
 297   22:30   49.6    42    9.6   174     14.1   813.1    0.00       0    53.4
 297   22:40   49.4    43    9.3   175     13.7   813.3    0.00       1    53.2
 297   22:50   50.3    41    9.2   174     14.3   813.3    0.00       0    53.1
 297   23:00   50.8    41   10.1   179     14.8   813.3    0.00       0    52.9
 297   23:10   51.6    39    9.8   181     14.5   813.3    0.00       0    52.8
 297   23:20   51.0    40    9.4   186     14.1   813.2    0.00       0    52.7
 297   23:30   49.5    42    8.7   187     11.9   813.2    0.00       1    52.6
 297   23:40   48.7    43    7.3   180     10.7   813.2    0.00       1    52.4
 297   23:50   48.5    44    8.3   186     10.7   813.2    0.00       1    52.2
 298    0:00   48.9    43    9.5   187     13.2   813.1    0.00       0    52.1
 298    0:10   48.7    44    7.1   182     12.4   813.1    0.00       0    51.9
 298    0:20   48.5    45    7.9   177     11.4   813.0    0.00       1    51.8
 298    0:30   48.6    45    9.9   190     14.0   812.9    0.00       1    51.6
 298    0:40   49.0    44   10.3   188     14.9   812.8    0.00       0    51.4
 298    0:50   48.3    45   10.2   195     13.4   813.0    0.00       0    51.3
 298    1:00   47.9    46    9.7   201     12.9   813.0    0.00       0    51.2
 298    1:10   48.7    45   11.0   202     14.9   812.9    0.00       0    51.0
 298    1:20   49.9    43   11.8   200     15.6   812.9    0.00       0    50.9
 298    1:30   49.7    44   11.8   196     16.5   812.7    0.00       0    50.9
 298    1:40   49.3    45   11.9   196     16.3   812.6    0.00       0    50.8
 298    1:50   49.0    46   12.3   193     16.6   812.6    0.00       1    50.8
 298    2:00   47.9    48   11.5   196     15.7   812.5    0.00       1    50.7
 298    2:10   46.2    50   11.3   196     16.4   812.4    0.00       1    50.6
 298    2:20   46.6    50   12.9   198     17.9   812.2    0.00       1    50.4
 298    2:30   48.3    48   12.6   195     16.5   812.1    0.00       0    50.3
 298    2:40   49.3    46   11.7   192     15.4   812.0    0.00       0    50.2
 298    2:50   48.3    48    8.5   178     13.8   812.0    0.00       1    50.2
 298    3:00   47.4    50    9.4   173     15.1   811.9    0.00       0    50.1
 298    3:10   46.5    51    8.8   173     13.8   811.8    0.00       1    50.0
 298    3:20   46.2    52    8.4   176     12.6   811.7    0.00       0    49.9
 298    3:30   45.4    53    7.5   174     12.9   811.7    0.00       1    49.8
 298    3:40   44.7    54   11.2   160     16.0   811.5    0.00       1    49.6
 298    3:50   45.0    54   13.9   157     18.9   811.4    0.00       1    49.4
 298    4:00   46.0    52   11.0   161     17.6   811.4    0.00       1    49.3
 298    4:10   47.5    49    9.1   167     13.7   811.4    0.00       0    49.2
 298    4:20   46.9    50    8.8   170     12.6   811.5    0.00       0    49.2
 298    4:30   45.8    52   10.7   166     16.9   811.5    0.00       0    49.1
 298    4:40   43.9    55   10.6   163     17.4   811.4    0.00       1    49.0
 298    4:50   44.3    54   13.8   161     19.0   811.4    0.00       1    48.8
 298    5:00   44.9    52   15.8   155     21.1   811.3    0.00       1    48.7
 298    5:10   45.0    52   13.9   150     18.1   811.4    0.00       0    48.6
 298    5:20   48.5    46   18.0   141     27.3   811.1    0.00       0    48.5
 298    5:30   50.8    42   18.8   136     26.5   810.9    0.00       1    48.7
 298    5:40   49.9    44   19.2   138     23.7   810.7    0.00       1    49.0
 298    5:50   51.1    44   21.0   136     27.0   810.7    0.00       5    49.2
 298    6:00   50.9    45   19.3   141     26.1   810.8    0.00       7    49.4
 298    6:10   50.4    47   18.8   149     24.3   811.1    0.00       7    49.5
 298    6:20   50.7    47   19.1   146     25.7   811.1    0.00       7    49.6
 298    6:30   50.3    48   16.9   147     22.4   811.3    0.00      14    49.8
 298    6:40   49.1    50   17.5   139     25.2   811.1    0.00      20    49.8
 298    6:50   50.7    48   20.0   138     27.8   811.0    0.00      21    49.8
 298    7:00   52.3    46   19.6   140     28.2   811.1    0.00     148    50.0
 298    7:10   55.2    43   19.6   135     27.0   811.3    0.00     189    50.3
 298    7:20   56.7    41   19.9   138     26.2   811.4    0.00     223    50.7
 298    7:30   57.8    41   20.2   135     28.9   811.2    0.00     257    51.0
 298    7:40   58.7    40   22.0   131     33.0   811.1    0.00     289    52.0
 298    7:50   59.2    40   23.3   127     36.6   811.0    0.00     322    53.5
 298    8:00   59.5    39   25.1   130     35.5   810.8    0.00     356    54.8
 298    8:10   59.8    39   25.6   132     39.5   810.7    0.00     389    56.0
 298    8:20   60.0    38   27.0   132     38.7   810.6    0.00     419    57.1
 298    8:30   60.6    38   25.7   136     37.8   810.7    0.00     449    58.0
 298    8:40   61.2    37   27.9   140     36.8   810.7    0.00     477    58.9
 298    8:50   61.5    36   28.9   138     39.2   810.7    0.00     505    59.8
 298    9:00   61.9    36   30.8   140     40.0   810.6    0.00     529    60.6
 298    9:10   62.5    36   29.5   137     39.4   810.4    0.00     553    61.4
 298    9:20   62.7    35   28.0   133     39.2   810.3    0.00     576    62.0
 298    9:30   63.1    34   28.7   135     43.7   810.4    0.00     599    62.7
 298    9:40   63.4    33   28.4   135     41.9   810.3    0.00     623    63.4
 298    9:50   63.8    33   27.3   132     38.8   810.4    0.00     639    64.0
 298   10:00   64.1    32   27.4   137     39.6   810.4    0.00     664    64.7
 298   10:10   64.8    31   26.9   138     35.4   810.4    0.00     692    65.3
 298   10:20   65.0    30   25.4   136     36.4   810.3    0.00     748    65.9
 298   10:30   65.8    28   24.6   138     32.9   810.3    0.00     762    66.5
 298   10:40   66.5    27   24.0   141     33.4   810.3    0.00     744    67.3

Return to Ely, Nevada graphs page.


Western Regional Climate Center,wrcc@dri.edu